createdAt,value
2023-01-22T00:01:25.978Z,13.93
2023-01-22T00:03:53.624Z,15.77
2023-01-22T00:06:21.878Z,14.70
2023-01-22T00:08:49.425Z,17.50
2023-01-22T00:11:16.945Z,16.80
2023-01-22T00:13:44.502Z,17.37
2023-01-22T00:16:15.259Z,15.93
2023-01-22T00:18:42.718Z,13.60
2023-01-22T00:21:10.313Z,16.47
2023-01-22T00:23:37.836Z,14.87
2023-01-22T00:26:08.559Z,17.35
2023-01-22T00:28:36.115Z,16.47
2023-01-22T00:31:03.805Z,14.63
2023-01-22T00:33:31.178Z,15.90
2023-01-22T00:35:58.746Z,15.60
2023-01-22T00:38:27.049Z,14.43
2023-01-22T00:40:54.576Z,16.07
2023-01-22T00:43:22.981Z,18.27
2023-01-22T00:45:50.505Z,20.77
2023-01-22T00:48:18.033Z,21.00
2023-01-22T00:50:48.762Z,17.57
2023-01-22T00:53:16.273Z,18.47
2023-01-22T00:55:50.758Z,17.17
2023-01-22T00:58:18.307Z,19.03
2023-01-22T01:00:45.884Z,18.80
2023-01-22T01:03:28.602Z,16.40
2023-01-22T01:06:01.671Z,17.53
2023-01-22T01:08:29.209Z,21.77
2023-01-22T01:10:59.291Z,17.60
2023-01-22T01:13:27.605Z,16.70
2023-01-22T01:16:03.968Z,18.70
2023-01-22T01:18:31.420Z,17.07
2023-01-22T01:20:58.973Z,17.67
2023-01-22T01:23:27.264Z,18.43
2023-01-22T01:25:54.830Z,18.53
2023-01-22T01:28:22.362Z,18.83
2023-01-22T01:30:49.959Z,20.67
2023-01-22T01:33:17.451Z,18.00
2023-01-22T01:35:44.994Z,19.10
2023-01-22T01:38:12.526Z,21.65
2023-01-22T01:40:42.788Z,20.35
2023-01-22T01:43:16.051Z,16.47
2023-01-22T01:45:43.579Z,21.07
2023-01-22T01:48:20.460Z,17.20
2023-01-22T01:50:48.027Z,17.47
2023-01-22T01:53:16.295Z,15.67
2023-01-22T01:55:43.846Z,17.93
2023-01-22T01:58:11.396Z,17.10
2023-01-22T02:00:38.997Z,16.17
2023-01-22T02:03:07.807Z,19.73
2023-01-22T02:05:35.261Z,18.27
2023-01-22T02:08:02.796Z,15.97
2023-01-22T02:10:30.347Z,15.90
2023-01-22T02:12:57.867Z,18.23
2023-01-22T02:15:26.170Z,16.83
2023-01-22T02:17:54.050Z,17.40
2023-01-22T02:20:21.594Z,18.67
2023-01-22T02:22:49.134Z,20.57
2023-01-22T02:25:17.467Z,19.65
2023-01-22T02:27:45.002Z,15.10
2023-01-22T02:30:12.585Z,17.37
2023-01-22T02:32:40.157Z,15.80
2023-01-22T02:35:07.727Z,17.10
2023-01-22T02:37:35.261Z,17.70
2023-01-22T02:40:02.822Z,18.10
2023-01-22T02:42:30.368Z,16.50
2023-01-22T02:44:57.897Z,15.90
2023-01-22T02:47:25.497Z,18.40
2023-01-22T02:49:53.006Z,16.33
2023-01-22T02:52:20.543Z,18.33
2023-01-22T02:54:48.102Z,15.77
2023-01-22T02:57:15.646Z,19.03
2023-01-22T02:59:43.170Z,17.67
2023-01-22T03:02:10.841Z,18.15
2023-01-22T03:04:38.340Z,17.17
2023-01-22T03:07:06.634Z,18.40
2023-01-22T03:09:34.954Z,18.10
2023-01-22T03:12:02.502Z,17.23
2023-01-22T03:14:48.223Z,17.73
2023-01-22T03:17:33.675Z,19.30
2023-01-22T03:20:19.859Z,18.63
2023-01-22T03:22:48.013Z,14.13
2023-01-22T03:25:15.573Z,15.13
2023-01-22T03:27:43.470Z,13.77
2023-01-22T03:30:11.246Z,14.87
2023-01-22T03:32:38.788Z,16.67
2023-01-22T03:35:06.344Z,17.77
2023-01-22T03:37:33.871Z,17.43
2023-01-22T03:40:01.417Z,17.60
2023-01-22T03:42:28.953Z,17.47
2023-01-22T03:44:56.472Z,15.63
2023-01-22T03:47:24.013Z,20.07
2023-01-22T03:49:51.559Z,16.83
2023-01-22T03:52:19.861Z,17.03
2023-01-22T03:54:47.394Z,16.57
2023-01-22T03:57:15.752Z,18.70
2023-01-22T03:59:43.277Z,17.83
2023-01-22T04:02:10.828Z,19.40
2023-01-22T04:04:39.312Z,19.90
2023-01-22T04:07:06.847Z,17.93
2023-01-22T04:09:34.392Z,18.33
2023-01-22T04:12:02.753Z,17.73
2023-01-22T04:14:30.281Z,18.10
2023-01-22T04:16:57.991Z,18.37
2023-01-22T04:19:25.530Z,21.50
2023-01-22T04:21:53.061Z,21.30
2023-01-22T04:24:20.579Z,20.88
2023-01-22T04:26:48.124Z,17.80
2023-01-22T04:29:16.430Z,17.40
2023-01-22T04:31:43.977Z,19.07
2023-01-22T04:34:12.279Z,23.90
2023-01-22T04:36:39.812Z,18.10
2023-01-22T04:39:07.340Z,20.03
2023-01-22T04:41:35.668Z,20.17
2023-01-22T04:44:03.207Z,18.83
2023-01-22T04:46:30.738Z,17.27
2023-01-22T04:48:58.298Z,18.53
2023-01-22T04:51:26.703Z,21.27
2023-01-22T04:53:54.149Z,20.37
2023-01-22T04:56:22.480Z,18.23
2023-01-22T04:58:50.011Z,20.27
2023-01-22T05:01:17.589Z,19.33
2023-01-22T05:03:45.930Z,18.70
2023-01-22T05:06:13.457Z,18.00
2023-01-22T05:08:41.644Z,18.63
2023-01-22T05:11:09.104Z,19.80
2023-01-22T05:13:37.424Z,20.07
2023-01-22T05:16:05.022Z,19.92
2023-01-22T05:18:32.499Z,19.37
2023-01-22T05:21:00.805Z,16.03
2023-01-22T05:23:28.350Z,17.97
2023-01-22T05:25:56.804Z,17.10
2023-01-22T05:28:24.337Z,17.87
2023-01-22T05:30:51.960Z,20.23
2023-01-22T05:33:19.440Z,18.40
2023-01-22T05:35:46.975Z,19.40
2023-01-22T05:38:14.492Z,17.10
2023-01-22T05:40:42.827Z,16.83
2023-01-22T05:43:10.364Z,20.17
2023-01-22T05:45:37.904Z,16.87
2023-01-22T05:48:06.284Z,17.40
2023-01-22T05:50:33.835Z,17.83
2023-01-22T05:53:02.128Z,16.83
2023-01-22T05:55:30.275Z,16.47
2023-01-22T05:57:58.567Z,20.47
2023-01-22T06:00:26.117Z,17.27
2023-01-22T06:02:59.904Z,19.67
2023-01-22T06:05:27.459Z,16.03
2023-01-22T06:07:55.064Z,20.25
2023-01-22T06:10:22.572Z,17.57
2023-01-22T06:12:50.092Z,19.10
2023-01-22T06:15:17.623Z,19.70
2023-01-22T06:17:45.987Z,19.93
2023-01-22T06:20:13.513Z,18.53
2023-01-22T06:22:41.049Z,18.13
2023-01-22T06:25:08.687Z,18.10
2023-01-22T06:27:36.989Z,17.47
2023-01-22T06:30:04.522Z,18.40
2023-01-22T06:32:32.107Z,24.93
2023-01-22T06:34:59.639Z,19.23
2023-01-22T06:37:27.192Z,19.87
2023-01-22T06:39:54.716Z,21.77
2023-01-22T06:42:22.254Z,19.40
2023-01-22T06:44:49.811Z,17.17
2023-01-22T06:47:17.383Z,18.37
2023-01-22T06:49:44.918Z,18.43
2023-01-22T06:52:12.456Z,20.07
2023-01-22T06:54:40.053Z,20.70
2023-01-22T06:57:07.585Z,20.33
2023-01-22T06:59:37.065Z,19.33
2023-01-22T07:02:03.749Z,22.10
2023-01-22T07:04:31.187Z,18.53
2023-01-22T07:06:58.736Z,20.53
2023-01-22T07:09:27.057Z,19.73
2023-01-22T07:11:54.605Z,20.03
2023-01-22T07:14:36.180Z,19.83
2023-01-22T07:16:49.706Z,20.87
2023-01-22T07:19:17.250Z,20.90
2023-01-22T07:21:44.781Z,23.73
2023-01-22T07:24:13.412Z,23.37
2023-01-22T07:26:40.947Z,24.20
2023-01-22T07:29:09.264Z,21.50
2023-01-22T07:31:36.918Z,20.97
2023-01-22T07:34:04.382Z,25.10
2023-01-22T07:36:31.907Z,20.57
2023-01-22T07:38:59.484Z,22.60
2023-01-22T07:41:27.007Z,22.37
2023-01-22T07:43:55.317Z,28.27
2023-01-22T07:46:22.905Z,23.70
2023-01-22T07:48:50.428Z,25.50
2023-01-22T07:51:17.985Z,22.27
2023-01-22T07:53:47.540Z,23.13
2023-01-22T07:56:14.975Z,22.93
2023-01-22T07:58:42.516Z,23.57
2023-01-22T08:01:10.187Z,23.87
2023-01-22T08:03:37.616Z,22.17
2023-01-22T08:06:08.117Z,22.77
2023-01-22T08:08:36.446Z,24.03
2023-01-22T08:11:03.969Z,27.20
2023-01-22T08:13:31.552Z,24.60
2023-01-22T08:16:00.394Z,22.33
2023-01-22T08:18:27.868Z,22.23
2023-01-22T08:20:55.418Z,22.27
2023-01-22T08:23:22.960Z,25.83
2023-01-22T08:25:50.520Z,21.97
2023-01-22T08:28:18.042Z,23.47
2023-01-22T08:30:46.948Z,27.15
2023-01-22T08:33:13.180Z,23.60
2023-01-22T08:35:40.714Z,23.70
2023-01-22T08:38:08.269Z,23.37
2023-01-22T08:40:37.926Z,21.73
2023-01-22T08:43:04.118Z,22.57
2023-01-22T08:45:32.862Z,28.33
2023-01-22T08:48:00.265Z,20.77
2023-01-22T08:50:27.802Z,24.25
2023-01-22T08:52:55.402Z,21.93
2023-01-22T08:55:22.920Z,22.50
2023-01-22T08:57:53.147Z,21.43
2023-01-22T09:00:20.809Z,22.37
2023-01-22T09:02:48.360Z,23.20
2023-01-22T09:05:15.886Z,23.60
2023-01-22T09:07:43.453Z,22.63
2023-01-22T09:10:11.814Z,20.07
2023-01-22T09:12:42.135Z,22.63
2023-01-22T09:15:09.749Z,17.63
2023-01-22T09:17:37.285Z,24.50
2023-01-22T09:20:04.908Z,22.20
2023-01-22T09:22:32.523Z,23.57
2023-01-22T09:25:00.116Z,23.77
2023-01-22T09:27:27.640Z,22.63
2023-01-22T09:29:55.961Z,21.87
2023-01-22T09:32:23.502Z,22.23
2023-01-22T09:34:51.044Z,22.20
2023-01-22T09:37:18.610Z,23.17
2023-01-22T09:39:46.157Z,21.90
2023-01-22T09:42:13.691Z,21.13
2023-01-22T09:44:42.049Z,22.27
2023-01-22T09:47:19.371Z,22.57
2023-01-22T09:50:01.942Z,21.27
2023-01-22T09:52:29.517Z,21.53
2023-01-22T09:54:57.043Z,24.42
2023-01-22T09:57:31.743Z,19.07
2023-01-22T09:59:52.134Z,21.30
2023-01-22T10:02:28.584Z,21.47
2023-01-22T10:04:59.144Z,20.07
2023-01-22T10:07:29.144Z,22.27
2023-01-22T10:09:56.670Z,22.33
2023-01-22T10:12:25.885Z,20.40
2023-01-22T10:14:53.413Z,21.70
2023-01-22T10:17:20.965Z,23.73
2023-01-22T10:19:48.521Z,22.70
2023-01-22T10:22:21.945Z,19.83
2023-01-22T10:24:49.491Z,22.13
2023-01-22T10:27:17.834Z,19.33
2023-01-22T10:29:45.369Z,20.83
2023-01-22T10:32:24.980Z,20.33
2023-01-22T10:35:01.815Z,20.37
2023-01-22T10:37:29.475Z,19.43
2023-01-22T10:39:56.945Z,19.43
2023-01-22T10:42:24.496Z,21.93
2023-01-22T10:44:52.057Z,18.58
2023-01-22T10:47:19.592Z,17.63
2023-01-22T10:49:47.124Z,20.95
2023-01-22T10:52:35.439Z,19.62
2023-01-22T10:55:02.973Z,17.30
2023-01-22T10:57:30.504Z,17.10
2023-01-22T11:00:07.044Z,19.17
2023-01-22T11:02:34.607Z,15.63
2023-01-22T11:05:08.035Z,19.35
2023-01-22T11:07:35.628Z,20.07
2023-01-22T11:10:18.426Z,17.30
2023-01-22T11:12:54.431Z,16.80
2023-01-22T11:15:28.229Z,16.43
2023-01-22T11:17:55.744Z,15.07
2023-01-22T11:20:40.953Z,15.43
2023-01-22T11:23:11.147Z,15.63
2023-01-22T11:25:38.671Z,14.77
2023-01-22T11:28:17.784Z,15.93
2023-01-22T11:30:51.580Z,14.80
2023-01-22T11:33:25.359Z,15.20
2023-01-22T11:36:11.487Z,15.73
2023-01-22T11:38:54.137Z,16.37
2023-01-22T11:41:36.622Z,15.97
2023-01-22T11:44:10.255Z,15.47
2023-01-22T11:46:40.729Z,15.40
2023-01-22T11:49:23.838Z,15.13
2023-01-22T11:51:57.103Z,16.10
2023-01-22T11:54:52.179Z,15.70
2023-01-22T11:57:25.411Z,16.83
2023-01-22T12:00:07.729Z,14.83
2023-01-22T12:02:35.300Z,14.27
2023-01-22T12:05:20.835Z,14.65
2023-01-22T12:08:24.808Z,13.93
2023-01-22T12:10:58.254Z,16.37
2023-01-22T12:13:28.235Z,14.70
2023-01-22T12:16:17.436Z,31.30
2023-01-22T12:18:53.925Z,13.47
2023-01-22T12:21:24.151Z,14.80
2023-01-22T12:23:51.695Z,15.95
2023-01-22T12:26:21.929Z,14.23
2023-01-22T12:28:49.533Z,15.90
2023-01-22T12:31:31.788Z,15.40
2023-01-22T12:33:59.313Z,14.48
2023-01-22T12:36:26.863Z,13.27
2023-01-22T12:38:54.392Z,14.93
2023-01-22T12:41:37.752Z,14.07
2023-01-22T12:44:17.671Z,13.53
2023-01-22T12:47:12.601Z,13.13
2023-01-22T12:49:46.223Z,14.77
2023-01-22T12:52:29.129Z,12.87
2023-01-22T12:54:56.672Z,11.60
2023-01-22T12:57:24.211Z,11.80
2023-01-22T12:59:52.540Z,13.23
2023-01-22T13:02:31.800Z,12.07
2023-01-22T13:04:59.718Z,11.43
2023-01-22T13:07:30.086Z,12.47
2023-01-22T13:10:22.596Z,12.10
2023-01-22T13:12:50.151Z,13.77
2023-01-22T13:15:30.007Z,13.00
2023-01-22T13:18:07.638Z,12.30
2023-01-22T13:20:31.078Z,12.27
2023-01-22T13:22:58.652Z,12.40
2023-01-22T13:25:26.195Z,13.77
2023-01-22T13:27:53.716Z,12.70
2023-01-22T13:30:24.066Z,11.53
2023-01-22T13:32:51.580Z,11.93
2023-01-22T13:35:20.152Z,11.87
2023-01-22T13:37:47.456Z,14.30
2023-01-22T13:40:21.314Z,13.83
2023-01-22T13:42:48.707Z,11.70
2023-01-22T13:45:16.292Z,12.67
2023-01-22T13:47:43.806Z,11.33
2023-01-22T13:50:20.695Z,12.17
2023-01-22T13:52:47.851Z,13.43
2023-01-22T13:55:15.377Z,13.37
2023-01-22T13:57:48.398Z,14.27
2023-01-22T14:00:28.044Z,16.43
2023-01-22T14:02:55.799Z,12.33
2023-01-22T14:05:23.412Z,13.73
2023-01-22T14:07:51.351Z,13.27
2023-01-22T14:10:24.700Z,13.87
2023-01-22T14:13:04.901Z,14.07
2023-01-22T14:15:34.726Z,14.37
2023-01-22T14:18:14.107Z,12.93
2023-01-22T14:20:45.367Z,14.40
2023-01-22T14:23:13.653Z,13.27
2023-01-22T14:25:46.765Z,16.47
2023-01-22T14:28:14.340Z,15.17
2023-01-22T14:30:41.918Z,16.43
2023-01-22T14:33:15.226Z,15.68
2023-01-22T14:35:43.572Z,14.47
2023-01-22T14:38:11.090Z,13.67
2023-01-22T14:40:38.591Z,14.77
2023-01-22T14:43:06.167Z,15.67
2023-01-22T14:45:34.474Z,14.93
2023-01-22T14:48:02.755Z,14.03
2023-01-22T14:50:30.329Z,15.23
2023-01-22T14:52:57.924Z,14.97
2023-01-22T14:55:25.460Z,13.67
2023-01-22T14:57:53.036Z,14.23
2023-01-22T15:00:20.939Z,17.20
2023-01-22T15:02:48.938Z,16.03
2023-01-22T15:05:16.504Z,16.33
2023-01-22T15:07:44.036Z,14.87
2023-01-22T15:10:12.382Z,14.07
2023-01-22T15:12:39.957Z,15.67
2023-01-22T15:15:08.336Z,19.07
2023-01-22T15:17:36.647Z,15.00
2023-01-22T15:20:04.233Z,14.73
2023-01-22T15:22:31.763Z,13.90
2023-01-22T15:24:59.307Z,17.50
2023-01-22T15:27:26.883Z,13.47
2023-01-22T15:29:54.412Z,15.03
2023-01-22T15:32:22.700Z,13.87
2023-01-22T15:34:50.289Z,13.40
2023-01-22T15:37:17.820Z,18.47
2023-01-22T15:39:46.127Z,15.30
2023-01-22T15:42:13.723Z,13.67
2023-01-22T15:44:41.269Z,15.47
2023-01-22T15:47:08.793Z,16.65
2023-01-22T15:49:36.372Z,14.30
2023-01-22T15:52:03.904Z,14.07
2023-01-22T15:54:31.438Z,14.57
2023-01-22T15:56:59.786Z,18.77
2023-01-22T15:59:27.316Z,14.80
2023-01-22T16:01:54.871Z,15.67
2023-01-22T16:04:22.443Z,18.35
2023-01-22T16:06:49.978Z,14.00
2023-01-22T16:09:17.513Z,16.30
2023-01-22T16:11:45.865Z,16.37
2023-01-22T16:14:13.389Z,15.47
2023-01-22T16:16:40.953Z,16.00
2023-01-22T16:19:08.501Z,17.67
2023-01-22T16:21:36.038Z,15.00
2023-01-22T16:24:03.556Z,16.97
2023-01-22T16:26:31.146Z,14.67
2023-01-22T16:28:59.449Z,17.20
2023-01-22T16:31:29.859Z,18.20
2023-01-22T16:33:59.870Z,15.17
2023-01-22T16:36:28.170Z,16.63
2023-01-22T16:38:55.699Z,17.37
2023-01-22T16:41:33.049Z,14.50
2023-01-22T16:44:09.075Z,16.40
2023-01-22T16:46:36.625Z,15.80
2023-01-22T16:49:04.208Z,15.77
2023-01-22T16:51:34.464Z,14.07
2023-01-22T16:54:02.021Z,13.77
2023-01-22T16:56:29.600Z,18.10
2023-01-22T16:58:57.889Z,16.65
2023-01-22T17:01:26.193Z,15.17
2023-01-22T17:03:53.764Z,17.07
2023-01-22T17:06:27.307Z,15.37
2023-01-22T17:08:54.849Z,15.77
2023-01-22T17:11:22.433Z,16.03
2023-01-22T17:13:50.722Z,17.23
2023-01-22T17:16:18.246Z,18.47
2023-01-22T17:18:45.831Z,17.10
2023-01-22T17:21:14.139Z,14.63
2023-01-22T17:23:41.665Z,17.37
2023-01-22T17:26:09.989Z,17.53
2023-01-22T17:28:37.515Z,16.17
2023-01-22T17:31:05.173Z,16.03
2023-01-22T17:33:33.377Z,16.17
2023-01-22T17:36:00.920Z,16.93
2023-01-22T17:38:28.444Z,15.80
2023-01-22T17:40:56.788Z,15.80
2023-01-22T17:43:24.306Z,17.97
2023-01-22T17:45:51.870Z,17.77
2023-01-22T17:48:20.178Z,18.20
2023-01-22T17:50:47.760Z,24.07
2023-01-22T17:53:15.274Z,26.25
2023-01-22T17:55:42.860Z,18.87
2023-01-22T17:58:10.415Z,16.53
2023-01-22T18:00:37.955Z,19.33
2023-01-22T18:03:05.519Z,15.73
2023-01-22T18:05:33.056Z,17.33
2023-01-22T18:08:00.574Z,16.53
2023-01-22T18:10:28.157Z,16.70
2023-01-22T18:12:58.711Z,18.20
2023-01-22T18:15:26.227Z,17.53
2023-01-22T18:17:54.589Z,18.70
2023-01-22T18:20:23.550Z,17.33
2023-01-22T18:22:49.623Z,16.90
2023-01-22T18:25:17.376Z,19.57
2023-01-22T18:27:45.489Z,42.83
2023-01-22T18:30:13.010Z,17.77
2023-01-22T18:32:40.566Z,16.33
2023-01-22T18:35:08.305Z,18.97
2023-01-22T18:37:37.513Z,16.73
2023-01-22T18:40:03.425Z,18.90
2023-01-22T18:42:30.970Z,16.43
2023-01-22T18:44:58.512Z,17.08
2023-01-22T18:47:26.099Z,18.40
2023-01-22T18:49:53.623Z,16.67
2023-01-22T18:52:21.159Z,15.93
2023-01-22T18:54:48.733Z,14.40
2023-01-22T18:57:16.283Z,15.80
2023-01-22T18:59:44.579Z,14.00
2023-01-22T19:02:12.163Z,15.17
2023-01-22T19:04:39.693Z,17.13
2023-01-22T19:07:07.240Z,18.15
2023-01-22T19:09:36.166Z,17.00
2023-01-22T19:12:03.808Z,16.97
2023-01-22T19:14:31.225Z,14.53
2023-01-22T19:16:58.808Z,15.53
2023-01-22T19:19:27.103Z,13.87
2023-01-22T19:21:54.645Z,17.03
2023-01-22T19:24:22.985Z,15.63
2023-01-22T19:26:51.524Z,18.57
2023-01-22T19:29:18.064Z,16.90
2023-01-22T19:31:48.402Z,15.43
2023-01-22T19:34:15.864Z,15.23
2023-01-22T19:36:43.417Z,17.67
2023-01-22T19:39:11.389Z,19.20
2023-01-22T19:41:38.902Z,18.43
2023-01-22T19:44:07.206Z,18.87
2023-01-22T19:46:34.846Z,17.00
2023-01-22T19:49:02.303Z,17.87
2023-01-22T19:51:29.869Z,16.47
2023-01-22T19:54:00.614Z,17.17
2023-01-22T19:56:30.942Z,18.53
2023-01-22T19:58:58.500Z,16.73
2023-01-22T20:01:26.595Z,16.47
2023-01-22T20:03:54.130Z,17.57
2023-01-22T20:06:21.653Z,15.37
2023-01-22T20:08:50.011Z,16.33
2023-01-22T20:11:17.540Z,18.57
2023-01-22T20:13:45.075Z,19.95
2023-01-22T20:16:21.501Z,18.73
2023-01-22T20:18:49.028Z,18.73
2023-01-22T20:21:16.546Z,17.57
2023-01-22T20:23:45.165Z,17.43
2023-01-22T20:26:12.665Z,18.67
2023-01-22T20:28:40.204Z,17.53
2023-01-22T20:31:07.854Z,16.63
2023-01-22T20:33:35.319Z,17.90
2023-01-22T20:36:02.837Z,23.13
2023-01-22T20:38:30.703Z,16.47
2023-01-22T20:41:03.659Z,20.93
2023-01-22T20:43:31.201Z,18.17
2023-01-22T20:45:58.876Z,18.57
2023-01-22T20:48:27.098Z,16.93
2023-01-22T20:50:54.657Z,19.97
2023-01-22T20:53:22.217Z,19.13
2023-01-22T20:55:49.748Z,21.03
2023-01-22T20:58:17.336Z,22.03
2023-01-22T21:00:44.946Z,18.37
2023-01-22T21:03:12.448Z,19.67
2023-01-22T21:05:39.978Z,16.77
2023-01-22T21:08:08.827Z,19.10
2023-01-22T21:10:36.385Z,18.60
2023-01-22T21:13:03.905Z,21.97
2023-01-22T21:15:31.488Z,21.60
2023-01-22T21:17:59.051Z,22.17
2023-01-22T21:20:26.588Z,23.35
2023-01-22T21:22:55.034Z,20.33
2023-01-22T21:25:23.396Z,21.10
2023-01-22T21:27:51.262Z,19.43
2023-01-22T21:30:18.772Z,21.07
2023-01-22T21:32:46.019Z,23.13
2023-01-22T21:35:13.545Z,19.87
2023-01-22T21:37:41.905Z,19.00
2023-01-22T21:40:09.767Z,21.23
2023-01-22T21:42:55.122Z,23.45
2023-01-22T21:45:40.971Z,21.50
2023-01-22T21:48:08.526Z,21.23
2023-01-22T21:50:42.813Z,21.77
2023-01-22T21:53:10.363Z,22.30
2023-01-22T21:55:37.943Z,20.43
2023-01-22T21:58:08.709Z,26.33
2023-01-22T22:00:33.778Z,40.90
2023-01-22T22:03:01.700Z,32.40
2023-01-22T22:05:29.228Z,24.90
2023-01-22T22:07:57.528Z,20.60
2023-01-22T22:10:25.131Z,21.00
2023-01-22T22:12:52.645Z,21.67
2023-01-22T22:15:20.193Z,24.17
2023-01-22T22:17:47.760Z,20.27
2023-01-22T22:20:15.293Z,21.13
2023-01-22T22:22:43.604Z,19.83
2023-01-22T22:25:11.181Z,22.77
2023-01-22T22:27:38.724Z,19.33
2023-01-22T22:30:06.374Z,23.90
2023-01-22T22:32:33.939Z,19.00
2023-01-22T22:35:01.492Z,21.57
2023-01-22T22:37:29.773Z,19.40
2023-01-22T22:39:57.340Z,21.53
2023-01-22T22:42:24.871Z,21.37
2023-01-22T22:44:52.396Z,19.33
2023-01-22T22:47:20.009Z,18.07
2023-01-22T22:49:47.532Z,20.17
2023-01-22T22:52:15.839Z,22.93
2023-01-22T22:54:43.408Z,20.17
2023-01-22T22:57:10.934Z,22.90
2023-01-22T22:59:39.228Z,19.70
2023-01-22T23:02:06.811Z,20.50
2023-01-22T23:04:34.382Z,22.02
2023-01-22T23:07:01.886Z,20.90
2023-01-22T23:09:30.233Z,23.92
2023-01-22T23:12:00.196Z,19.67
2023-01-22T23:14:27.750Z,21.98
2023-01-22T23:16:56.179Z,18.97
2023-01-22T23:19:24.470Z,18.83
2023-01-22T23:21:54.848Z,18.70
2023-01-22T23:24:22.403Z,19.73
2023-01-22T23:26:49.932Z,23.53
2023-01-22T23:29:18.251Z,21.33
2023-01-22T23:31:46.578Z,17.37
2023-01-22T23:34:13.956Z,20.93
2023-01-22T23:36:41.504Z,19.97
2023-01-22T23:39:10.260Z,18.97
2023-01-22T23:41:37.813Z,20.17
2023-01-22T23:44:05.338Z,22.23
2023-01-22T23:46:32.923Z,24.87
2023-01-22T23:49:00.459Z,20.67
2023-01-22T23:51:27.996Z,22.93
2023-01-22T23:53:57.307Z,21.23
2023-01-22T23:56:24.832Z,18.00
2023-01-22T23:58:55.369Z,19.87
